Time;durP1;ratioP1;P1;durP2;ratioP2;P2;SDS_P1;SDS_P2;PMS_P1;PMS_P2;Temp;Humidity;BMP_temperature;BMP_pressure;BME280_temperature;BME280_humidity;BME280_pressure;Samples;Min_cycle;Max_cycle;Signal;HPM_P1;HPM_P2
2021/01/14 10:31:44;;;;;;;79.53;40.43;;;;;;;-0.96;85.85;97583.24;1834087;77;28066;-74
2021/01/14 10:34:10;;;;;;;79.70;42.75;;;;;;;-1.03;85.97;97580.04;1770025;79;21541;-74
2021/01/14 10:36:48;;;;;;;84.00;40.08;;;;;;;-1.06;86.14;97582.06;1751553;80;21172;-76
2021/01/14 10:39:17;;;;;;;83.90;43.00;;;;;;;-1.07;86.38;97576.94;1751589;80;21165;-75
2021/01/14 10:41:46;;;;;;;81.08;43.17;;;;;;;-1.04;86.31;97568.17;1751601;80;21118;-74
2021/01/14 10:44:13;;;;;;;82.25;40.85;;;;;;;-1.02;86.38;97565.30;1751879;80;21161;-74
2021/01/14 10:46:42;;;;;;;82.95;42.60;;;;;;;-1.01;86.51;97563.23;1751569;80;21304;-71
2021/01/14 10:49:13;;;;;;;78.45;41.92;;;;;;;-0.98;86.62;97562.92;1751689;82;21177;-74
2021/01/14 10:51:41;;;;;;;82.95;42.23;;;;;;;-0.93;86.50;97569.41;1751695;80;21153;-74
2021/01/14 10:54:09;;;;;;;90.12;44.77;;;;;;;-0.93;86.49;97564.34;1751411;80;21129;-73
2021/01/14 10:56:53;;;;;;;81.00;44.58;;;;;;;-0.90;86.54;97566.97;1762712;80;21264;-72
2021/01/14 10:59:24;;;;;;;86.63;44.38;;;;;;;-0.91;86.52;97562.32;1784808;80;21139;-75
2021/01/14 11:02:07;;;;;;;83.07;42.15;;;;;;;-0.86;86.62;97557.41;1787779;80;21174;-75
2021/01/14 11:04:35;;;;;;;79.95;39.53;;;;;;;-0.84;86.57;97555.80;1787334;78;21549;-74
2021/01/14 11:07:13;;;;;;;79.75;39.15;;;;;;;-0.77;86.55;97553.89;1770780;78;21168;-74
2021/01/14 11:09:52;;;;;;;97.90;47.35;;;;;;;-0.82;86.44;97547.82;1762439;80;21729;-74
2021/01/14 11:12:20;;;;;;;87.75;45.15;;;;;;;-0.84;86.79;97545.67;1762516;80;21148;-74
2021/01/14 11:14:49;;;;;;;94.10;46.10;;;;;;;-0.72;86.67;97544.77;1761641;80;21266;-76
2021/01/14 11:17:17;;;;;;;82.60;42.20;;;;;;;-0.69;86.48;97549.96;1778047;80;21567;-71
2021/01/14 11:19:48;;;;;;;94.37;46.13;;;;;;;-0.74;86.50;97546.80;1782072;78;21594;-73
2021/01/14 11:22:15;;;;;;;87.75;46.08;;;;;;;-0.77;86.71;97545.03;1775265;80;21119;-74
2021/01/14 11:24:43;;;;;;;94.97;46.88;;;;;;;-0.75;86.81;97540.88;1792693;78;21142;-74
2021/01/14 11:27:11;;;;;;;92.90;46.40;;;;;;;-0.70;86.84;97540.63;1793532;80;21138;-73
2021/01/14 11:29:39;;;;;;;82.00;41.53;;;;;;;-0.64;86.77;97543.75;1793541;78;21146;-73
2021/01/14 11:32:06;;;;;;;87.88;44.15;;;;;;;-0.59;86.66;97543.91;1793874;80;21166;-71
2021/01/14 11:34:34;;;;;;;95.65;47.38;;;;;;;-0.64;86.66;97540.36;1793723;79;21146;-75
2021/01/14 11:37:02;;;;;;;104.90;50.60;;;;;;;-0.67;86.70;97538.59;1789369;78;21659;-74
2021/01/14 11:39:29;;;;;;;109.32;54.25;;;;;;;-0.66;86.77;97539.06;1767002;80;21167;-74
2021/01/14 11:41:57;;;;;;;97.75;50.45;;;;;;;-0.67;86.97;97543.24;1779115;79;21199;-73
2021/01/14 11:44:25;;;;;;;95.72;47.10;;;;;;;-0.59;87.01;97541.37;1777130;80;21257;-73
2021/01/14 11:46:53;;;;;;;93.10;45.23;;;;;;;-0.61;86.81;97545.52;1776550;80;21144;-73
2021/01/14 11:49:20;;;;;;;95.15;45.38;;;;;;;-0.68;87.03;97540.27;1772298;79;21156;-73
2021/01/14 11:51:52;;;;;;;92.40;46.53;;;;;;;-0.61;87.51;97539.19;1788884;80;21597;-73
2021/01/14 11:54:19;;;;;;;85.45;44.48;;;;;;;-0.46;87.41;97534.59;1793439;79;21138;-73
2021/01/14 11:56:52;;;;;;;97.55;46.33;;;;;;;-0.37;87.08;97534.89;1793166;78;21147;-75
2021/01/14 11:59:20;;;;;;;100.72;46.60;;;;;;;-0.31;86.97;97533.80;1793164;79;21312;-76
2021/01/14 12:01:49;;;;;;;97.82;49.27;;;;;;;-0.27;86.78;97533.50;1784096;80;21128;-75
2021/01/14 12:04:17;;;;;;;101.58;49.88;;;;;;;-0.18;86.87;97535.44;1762407;80;21160;-73
2021/01/14 12:06:51;;;;;;;98.37;46.68;;;;;;;-0.03;86.66;97532.09;1764275;80;21320;-75
2021/01/14 12:09:19;;;;;;;83.50;43.25;;;;;;;0.08;86.35;97530.75;1779700;80;21747;-78
2021/01/14 12:11:49;;;;;;;96.45;45.30;;;;;;;0.06;85.64;97532.37;1785642;79;21186;-72
2021/01/14 12:14:17;;;;;;;99.15;46.73;;;;;;;-0.10;85.74;97531.06;1785621;80;21142;-72
2021/01/14 12:16:45;;;;;;;94.47;47.38;;;;;;;-0.16;85.88;97536.35;1762092;80;21142;-72
2021/01/14 12:19:13;;;;;;;88.27;42.15;;;;;;;-0.20;86.12;97537.06;1779565;80;21157;-71
2021/01/14 12:21:41;;;;;;;101.45;47.98;;;;;;;-0.19;86.06;97537.53;1762011;80;21272;-73
2021/01/14 12:24:09;;;;;;;88.47;45.08;;;;;;;-0.24;86.28;97534.44;1762259;80;21175;-75
2021/01/14 12:26:37;;;;;;;95.17;47.83;;;;;;;-0.09;86.55;97538.27;1761813;80;21147;-72
2021/01/14 12:29:05;;;;;;;90.20;42.45;;;;;;;0.06;86.30;97533.64;1772882;80;21155;-73
2021/01/14 12:31:35;;;;;;;83.35;42.83;;;;;;;0.20;85.92;97531.10;1792877;79;21376;-72
2021/01/14 12:34:03;;;;;;;84.30;42.05;;;;;;;0.34;85.81;97527.67;1769963;80;21361;-73
2021/01/14 12:36:33;;;;;;;90.72;43.98;;;;;;;0.47;85.41;97527.59;1762922;80;21116;-70
2021/01/14 12:39:01;;;;;;;90.25;42.15;;;;;;;0.63;85.25;97528.86;1792424;79;21154;-73
2021/01/14 12:41:33;;;;;;;87.67;42.25;;;;;;;0.78;84.90;97533.49;1793108;79;21134;-71
2021/01/14 12:44:03;;;;;;;94.65;42.83;;;;;;;0.94;84.51;97535.62;1788454;78;21537;-74
2021/01/14 12:46:43;;;;;;;90.07;46.28;;;;;;;1.08;83.91;97535.96;1773326;80;21152;-71
2021/01/14 12:49:19;;;;;;;98.87;47.27;;;;;;;1.17;83.40;97535.31;1776975;80;21277;-70
2021/01/14 12:51:47;;;;;;;103.27;50.83;;;;;;;1.22;83.10;97541.38;1793019;79;21175;-72
2021/01/14 12:54:14;;;;;;;95.00;47.08;;;;;;;1.29;82.82;97540.70;1793079;80;21155;-72
2021/01/14 12:56:42;;;;;;;107.05;54.23;;;;;;;1.36;82.44;97541.31;1779118;79;21103;-71
2021/01/14 12:59:10;;;;;;;108.35;54.95;;;;;;;1.40;82.31;97545.66;1778225;80;21148;-73
2021/01/14 13:01:38;;;;;;;98.55;49.88;;;;;;;1.47;82.12;97533.93;1776487;80;21124;-73
2021/01/14 13:04:11;;;;;;;93.62;46.55;;;;;;;1.50;81.81;97545.44;1775227;80;21791;-72
2021/01/14 13:06:39;;;;;;;;;;;;;;;1.42;81.23;97549.06;1784376;78;21110;-71
2021/01/14 13:09:09;;;;;;;82.88;41.85;;;;;;;1.22;81.19;97550.27;1792396;79;20359;-74
2021/01/14 13:11:39;;;;;;;90.65;46.68;;;;;;;1.05;81.24;97540.97;1793019;78;21210;-74
2021/01/14 13:14:08;;;;;;;79.90;42.05;;;;;;;0.94;81.77;97545.78;1763233;80;21158;-70
2021/01/14 13:16:38;;;;;;;97.17;49.60;;;;;;;0.92;81.53;97549.95;1766326;80;21552;-73
2021/01/14 13:19:12;;;;;;;93.27;46.83;;;;;;;0.65;82.05;97550.94;1761974;81;21162;-76
2021/01/14 13:21:43;;;;;;;96.28;47.95;;;;;;;0.49;82.16;97545.00;1761822;80;21577;-75
2021/01/14 13:24:12;;;;;;;92.97;48.60;;;;;;;0.32;82.89;97547.06;1761651;81;21166;-72
2021/01/14 13:26:40;;;;;;;108.12;52.20;;;;;;;0.18;83.24;97545.41;1761822;80;21567;-73
2021/01/14 13:29:11;;;;;;;106.90;53.87;;;;;;;0.18;84.06;97553.02;1761762;81;21146;-74
2021/01/14 13:31:43;;;;;;;98.87;49.73;;;;;;;0.26;84.15;97545.63;1764107;78;21290;-74
2021/01/14 13:34:15;;;;;;;96.57;48.42;;;;;;;0.34;84.15;97551.77;1724211;83;21166;-72
2021/01/14 13:36:45;;;;;;;95.28;49.20;;;;;;;0.42;84.13;97545.64;1724342;83;21182;-73
2021/01/14 13:39:14;;;;;;;;;;;;;;;0.47;83.92;97547.05;1736737;83;21179;-71
2021/01/14 13:41:52;;;;;;;78.37;42.08;;;;;;;0.49;83.85;97548.81;1725360;82;20470;-71
2021/01/14 13:44:22;;;;;;;80.65;41.35;;;;;;;0.47;83.55;97554.24;1726024;82;21153;-74
2021/01/14 13:46:50;;;;;;;78.50;41.13;;;;;;;0.45;83.20;97558.83;1710838;83;21285;-74
2021/01/14 13:49:23;;;;;;;86.57;41.18;;;;;;;0.42;82.93;97558.33;1737468;81;21297;-70
2021/01/14 13:51:51;;;;;;;75.05;39.38;;;;;;;0.38;83.04;97551.05;1729854;82;21160;-74
2021/01/14 13:54:19;;;;;;;78.22;40.52;;;;;;;0.36;82.98;97558.17;1727473;82;21306;-73
2021/01/14 13:56:47;;;;;;;83.95;40.23;;;;;;;0.35;83.01;97556.44;1725850;83;21176;-74
2021/01/14 13:59:15;;;;;;;75.37;40.88;;;;;;;0.39;82.95;97556.98;1729791;82;21756;-73
2021/01/14 14:01:44;;;;;;;75.35;38.75;;;;;;;0.38;82.75;97560.31;1725749;83;21200;-72
2021/01/14 14:04:12;;;;;;;69.62;36.48;;;;;;;0.35;82.57;97563.63;1725763;83;21208;-72
2021/01/14 14:06:42;;;;;;;69.17;36.80;;;;;;;0.30;82.62;97562.64;1725628;83;21160;-72
2021/01/14 14:09:16;;;;;;;69.53;37.00;;;;;;;0.26;82.54;97566.34;1748362;82;21305;-70
2021/01/14 14:11:45;;;;;;;85.70;41.80;;;;;;;0.18;82.81;97565.70;1755520;82;21383;-73
2021/01/14 14:14:16;;;;;;;83.80;41.53;;;;;;;0.13;82.90;97571.47;1755796;82;21166;-65
2021/01/14 14:16:45;;;;;;;79.97;43.70;;;;;;;0.12;83.15;97569.31;1731230;82;21183;-66
2021/01/14 14:19:13;;;;;;;73.67;40.08;;;;;;;0.12;83.13;97574.80;1725703;83;21302;-66
2021/01/14 14:21:41;;;;;;;75.47;41.70;;;;;;;0.09;83.40;97575.57;1725703;83;21163;-66
2021/01/14 14:24:11;;;;;;;79.97;41.63;;;;;;;0.04;83.69;97579.64;1725589;83;21210;-66
2021/01/14 14:26:38;;;;;;;79.50;41.08;;;;;;;0.02;83.96;97580.00;1725742;83;21338;-65
2021/01/14 14:29:06;;;;;;;76.57;42.45;;;;;;;0.00;84.23;97580.39;1725602;83;21155;-66
2021/01/14 14:31:38;;;;;;;88.05;43.68;;;;;;;-0.04;84.40;97580.69;1716733;83;21306;-66
2021/01/14 14:34:06;;;;;;;80.40;42.05;;;;;;;-0.05;84.78;97574.28;1748608;81;21142;-65
2021/01/14 14:36:37;;;;;;;77.87;41.95;;;;;;;-0.06;85.11;97577.23;1748379;81;21135;-65
2021/01/14 14:39:05;;;;;;;72.27;39.40;;;;;;;0.02;85.45;97581.68;1748518;81;21285;-65
2021/01/14 14:41:33;;;;;;;71.25;38.78;;;;;;;0.03;85.28;97580.89;1748269;81;21351;-66
2021/01/14 14:44:01;;;;;;;69.82;36.53;;;;;;;0.00;85.42;97582.92;1748366;81;21284;-74
2021/01/14 14:46:29;;;;;;;63.63;34.20;;;;;;;-0.03;85.54;97577.73;1748440;82;21142;-68
2021/01/14 14:48:57;;;;;;;60.58;32.48;;;;;;;-0.05;85.51;97580.25;1752734;81;21147;-70
2021/01/14 14:51:25;;;;;;;55.73;29.55;;;;;;;-0.08;85.30;97572.94;1761131;81;21144;-68
2021/01/14 14:53:55;;;;;;;53.58;29.37;;;;;;;-0.14;85.17;97574.88;1748564;82;21184;-68
2021/01/14 14:56:25;;;;;;;49.58;28.00;;;;;;;-0.19;85.33;97576.83;1752794;81;21127;-69
2021/01/14 14:58:52;;;;;;;48.75;29.70;;;;;;;-0.24;85.51;97577.53;1764337;81;21168;-70
2021/01/14 15:01:20;;;;;;;44.25;25.75;;;;;;;-0.27;85.47;97578.72;1748595;80;21211;-68
2021/01/14 15:03:48;;;;;;;47.05;25.88;;;;;;;-0.33;85.23;97580.19;1748698;81;21352;-68
2021/01/14 15:06:19;;;;;;;43.90;24.72;;;;;;;-0.39;85.14;97582.13;1748295;81;21156;-68
2021/01/14 15:08:48;;;;;;;38.85;21.80;;;;;;;-0.49;84.96;97579.70;1748316;81;21164;-69
2021/01/14 15:11:20;;;;;;;43.02;22.40;;;;;;;-0.57;84.72;97582.82;1748316;81;21152;-70
2021/01/14 15:13:49;;;;;;;40.23;23.27;;;;;;;-0.70;84.56;97579.03;1748571;82;21168;-69
2021/01/14 15:16:18;;;;;;;36.30;20.82;;;;;;;-0.81;84.71;97587.96;1748593;81;21180;-69
2021/01/14 15:18:50;;;;;;;40.73;23.00;;;;;;;-0.90;84.77;97583.43;1747374;81;21579;-68
2021/01/14 15:21:17;;;;;;;41.45;22.07;;;;;;;-0.99;84.70;97585.64;1748482;81;21177;-68
2021/01/14 15:23:45;;;;;;;40.15;21.75;;;;;;;-1.06;84.82;97592.19;1748561;81;21196;-70
2021/01/14 15:26:12;;;;;;;37.08;21.25;;;;;;;-1.14;85.04;97591.07;1748689;82;21165;-70
2021/01/14 15:28:40;;;;;;;36.25;20.48;;;;;;;-1.23;85.00;97593.27;1748592;81;21280;-70
2021/01/14 15:31:08;;;;;;;36.75;19.82;;;;;;;-1.32;85.07;97598.88;1748554;81;21666;-70
2021/01/14 15:33:36;;;;;;;35.68;20.23;;;;;;;-1.43;84.80;97602.27;1748419;81;21141;-71
2021/01/14 15:36:06;;;;;;;40.52;21.25;;;;;;;-1.50;84.74;97605.80;1748494;81;21317;-70
2021/01/14 15:38:34;;;;;;;41.13;20.95;;;;;;;-1.56;85.00;97606.03;1748553;81;21157;-69
2021/01/14 15:41:01;;;;;;;42.62;21.30;;;;;;;-1.55;85.26;97602.72;1748556;81;21164;-69
2021/01/14 15:43:29;;;;;;;33.90;19.15;;;;;;;-1.61;84.79;97601.20;1768921;80;21127;-68
2021/01/14 15:45:57;;;;;;;35.90;18.98;;;;;;;-1.66;84.77;97608.17;1778209;79;21186;-69
2021/01/14 15:48:25;;;;;;;34.38;18.17;;;;;;;-1.76;84.87;97609.50;1779207;81;21238;-69
2021/01/14 15:50:54;;;;;;;39.63;21.42;;;;;;;-1.80;85.01;97609.80;1779328;81;21139;-69
2021/01/14 15:53:22;;;;;;;34.08;19.07;;;;;;;-1.80;84.93;97612.73;1779457;81;21709;-69
2021/01/14 15:55:49;;;;;;;39.45;19.57;;;;;;;-1.83;84.95;97610.95;1764871;81;21143;-70
2021/01/14 15:58:19;;;;;;;32.40;18.50;;;;;;;-1.87;84.90;97614.56;1748630;81;21116;-69
2021/01/14 16:00:47;;;;;;;37.55;20.27;;;;;;;-1.89;85.02;97615.77;1722981;81;21325;-71
2021/01/14 16:03:15;;;;;;;37.38;20.17;;;;;;;-1.85;85.38;97611.70;1731278;81;21358;-68
2021/01/14 16:05:43;;;;;;;37.73;20.85;;;;;;;-1.83;85.34;97614.75;1748807;82;21618;-70
2021/01/14 16:08:10;;;;;;;44.03;20.60;;;;;;;-1.82;85.37;97615.60;1748529;81;21274;-68
2021/01/14 16:10:39;;;;;;;38.17;20.77;;;;;;;-1.81;85.49;97622.37;1769985;81;21107;-69
2021/01/14 16:13:06;;;;;;;38.05;21.15;;;;;;;-1.79;85.47;97622.89;1779245;81;21289;-69
2021/01/14 16:15:34;;;;;;;37.67;19.57;;;;;;;-1.79;85.50;97625.83;1776929;81;21597;-68
2021/01/14 16:18:02;;;;;;;44.60;21.42;;;;;;;-1.76;85.55;97625.94;1779256;79;21282;-70
2021/01/14 16:20:30;;;;;;;38.10;21.05;;;;;;;-1.76;85.41;97623.41;1751398;80;21289;-68
2021/01/14 16:22:58;;;;;;;38.65;20.55;;;;;;;-1.74;85.19;97623.06;1757292;81;21273;-67
2021/01/14 16:25:25;;;;;;;34.73;18.62;;;;;;;-1.77;84.94;97631.81;1779366;80;21280;-70
2021/01/14 16:27:53;;;;;;;45.67;21.33;;;;;;;-1.84;84.77;97629.84;1779532;79;21289;-71
2021/01/14 16:30:22;;;;;;;36.38;18.80;;;;;;;-1.90;84.79;97628.36;1779320;81;21147;-72
2021/01/14 16:32:51;;;;;;;38.40;19.90;;;;;;;-1.91;85.08;97624.09;1766803;79;21574;-72
2021/01/14 16:35:19;;;;;;;40.40;21.85;;;;;;;-1.91;84.87;97622.83;1778530;81;21282;-73
2021/01/14 16:37:47;;;;;;;42.90;21.77;;;;;;;-1.95;84.68;97622.27;1779304;79;21170;-73
2021/01/14 16:40:15;;;;;;;38.30;20.08;;;;;;;-2.04;84.61;97626.55;1779539;79;21138;-71
2021/01/14 16:42:43;;;;;;;42.55;22.32;;;;;;;-2.13;84.78;97628.34;1779427;79;21146;-74
2021/01/14 16:45:13;;;;;;;42.83;20.80;;;;;;;-2.19;84.89;97631.88;1779261;81;21305;-71
2021/01/14 16:47:41;;;;;;;41.15;21.20;;;;;;;-2.24;85.10;97633.36;1779580;81;21270;-74
2021/01/14 16:50:11;;;;;;;39.35;20.15;;;;;;;-2.29;84.94;97632.31;1779460;80;21174;-74
2021/01/14 16:52:39;;;;;;;42.60;18.90;;;;;;;-2.36;85.16;97633.75;1779545;81;21593;-70
2021/01/14 16:55:08;;;;;;;40.03;19.80;;;;;;;-2.43;85.25;97626.31;1779472;81;21162;-71
2021/01/14 16:57:39;;;;;;;39.98;20.55;;;;;;;-2.46;85.40;97637.56;1779678;81;21546;-73
2021/01/14 17:00:08;;;;;;;38.83;18.27;;;;;;;-2.50;85.52;97638.23;1779367;81;21144;-70
2021/01/14 17:02:36;;;;;;;41.08;19.55;;;;;;;-2.53;85.43;97635.59;1779503;79;21167;-68
2021/01/14 17:05:06;;;;;;;35.88;17.77;;;;;;;-2.56;85.46;97643.45;1779269;79;21170;-69
2021/01/14 17:07:34;;;;;;;40.38;18.52;;;;;;;-2.62;85.29;97641.14;1779284;79;21368;-71
2021/01/14 17:10:02;;;;;;;36.38;18.17;;;;;;;-2.67;85.54;97638.83;1779493;81;21111;-73
2021/01/14 17:12:30;;;;;;;39.90;20.10;;;;;;;-2.69;85.52;97640.83;1779301;79;21111;-71
2021/01/14 17:14:58;;;;;;;36.10;19.12;;;;;;;-2.71;85.57;97637.38;1779340;80;21320;-72
2021/01/14 17:17:25;;;;;;;40.28;18.70;;;;;;;-2.75;85.63;97640.55;1779317;81;21103;-75
2021/01/14 17:19:54;;;;;;;37.88;18.05;;;;;;;-2.82;85.53;97634.41;1779287;79;21147;-74
2021/01/14 17:22:21;;;;;;;41.63;17.60;;;;;;;-2.88;85.60;97634.99;1779254;81;21293;-75
2021/01/14 17:24:49;;;;;;;37.53;18.45;;;;;;;-2.94;85.57;97634.75;1779587;79;21574;-72
2021/01/14 17:27:17;;;;;;;37.98;18.90;;;;;;;-2.96;85.50;97635.08;1779245;81;21305;-74
2021/01/14 17:29:45;;;;;;;36.25;18.17;;;;;;;-3.00;85.65;97640.81;1779465;79;21120;-70
2021/01/14 17:32:13;;;;;;;41.37;21.02;;;;;;;-3.02;85.67;97636.09;1779325;80;21174;-68
2021/01/14 17:34:42;;;;;;;39.45;20.02;;;;;;;-3.06;85.91;97629.17;1779295;79;21165;-70
2021/01/14 17:37:10;;;;;;;35.88;17.37;;;;;;;-3.09;86.02;97644.19;1779314;79;21162;-68
2021/01/14 17:39:38;;;;;;;36.10;17.02;;;;;;;-3.14;85.52;97649.44;1779340;79;21288;-72
2021/01/14 17:42:06;;;;;;;37.23;17.17;;;;;;;-3.23;85.16;97647.40;1779326;80;21143;-71
2021/01/14 17:44:34;;;;;;;39.67;18.48;;;;;;;-3.29;85.34;97651.75;1779445;79;21108;-69
2021/01/14 17:47:02;;;;;;;36.33;17.48;;;;;;;-3.29;85.34;97654.27;1779403;81;21265;-72
2021/01/14 17:49:30;;;;;;;37.17;18.52;;;;;;;-3.24;85.55;97650.70;1779335;81;21151;-73
2021/01/14 17:51:58;;;;;;;31.95;17.00;;;;;;;-3.20;85.44;97659.28;1779268;79;21735;-73
2021/01/14 17:54:25;;;;;;;35.60;17.70;;;;;;;-3.16;85.24;97654.81;1779576;79;21103;-69
2021/01/14 17:56:54;;;;;;;35.58;17.37;;;;;;;-3.12;85.27;97660.06;1779676;79;21187;-72
2021/01/14 17:59:24;;;;;;;34.00;18.00;;;;;;;-3.11;85.13;97659.25;1780408;81;21142;-71
2021/01/14 18:01:52;;;;;;;36.88;18.42;;;;;;;-3.06;85.37;97659.45;1780336;81;21135;-71
2021/01/14 18:04:20;;;;;;;33.95;17.05;;;;;;;-2.99;85.33;97663.98;1779919;79;21277;-71
2021/01/14 18:06:49;;;;;;;29.57;16.55;;;;;;;-2.95;85.18;97665.84;1762640;80;21277;-74
2021/01/14 18:09:17;;;;;;;38.10;19.00;;;;;;;-2.97;84.63;97669.95;1748983;82;21144;-73
2021/01/14 18:11:44;;;;;;;32.60;17.55;;;;;;;-3.00;84.59;97667.69;1748897;82;21161;-74
2021/01/14 18:14:15;;;;;;;43.98;20.23;;;;;;;-3.04;84.68;97666.70;1758397;81;21177;-76
2021/01/14 18:16:43;;;;;;;36.42;19.40;;;;;;;-3.06;84.86;97664.50;1764825;81;21148;-74
2021/01/14 18:19:11;;;;;;;32.42;17.25;;;;;;;-3.07;84.92;97669.09;1762817;79;21330;-77
2021/01/14 18:21:39;;;;;;;33.28;17.12;;;;;;;-3.11;84.61;97668.48;1764475;79;21143;-75
2021/01/14 18:24:08;;;;;;;33.75;17.27;;;;;;;-3.19;84.01;97669.83;1760096;81;21194;-73
2021/01/14 18:26:36;;;;;;;32.33;16.15;;;;;;;-3.30;84.01;97676.52;1749286;81;21421;-74
2021/01/14 18:29:04;;;;;;;34.90;17.77;;;;;;;-3.35;84.13;97673.34;1741880;81;21688;-76
2021/01/14 18:31:33;;;;;;;34.43;17.45;;;;;;;-3.38;84.24;97676.59;1766165;80;21116;-75
2021/01/14 18:34:02;;;;;;;39.98;19.32;;;;;;;-3.39;84.36;97675.25;1758274;80;21129;-59
2021/01/14 18:36:30;;;;;;;35.48;17.85;;;;;;;-3.38;84.63;97678.25;1764961;80;21523;-59
2021/01/14 18:38:59;;;;;;;38.75;17.07;;;;;;;-3.40;84.57;97677.31;1767051;80;21149;-59
2021/01/14 18:41:27;;;;;;;32.50;16.82;;;;;;;-3.45;84.48;97679.62;1769715;80;21236;-60
2021/01/14 18:43:56;;;;;;;31.15;16.25;;;;;;;-3.50;84.44;97683.60;1769397;80;21588;-61
2021/01/14 18:46:24;;;;;;;34.15;17.50;;;;;;;-3.54;84.60;97690.14;1767137;79;21652;-60
2021/01/14 18:48:54;;;;;;;32.10;16.95;;;;;;;-3.58;84.53;97687.44;1768762;79;21126;-59
2021/01/14 18:51:23;;;;;;;32.42;15.20;;;;;;;-3.62;84.64;97688.94;1770259;80;21109;-58
2021/01/14 18:53:50;;;;;;;28.27;13.88;;;;;;;-3.67;84.16;97689.53;1768934;80;21133;-59
2021/01/14 18:56:24;;;;;;;29.95;15.28;;;;;;;-3.77;83.83;97690.77;1768085;80;21106;-59
2021/01/14 18:58:53;;;;;;;26.37;13.93;;;;;;;-3.87;83.66;97693.25;1770872;79;21549;-59
2021/01/14 19:01:21;;;;;;;30.85;14.35;;;;;;;-3.93;83.61;97694.23;1770739;79;21276;-59
2021/01/14 19:03:49;;;;;;;30.00;15.32;;;;;;;-3.97;83.67;97705.84;1768766;80;21129;-59
2021/01/14 19:06:20;;;;;;;32.60;16.02;;;;;;;-3.97;83.53;97706.20;1711454;80;21885;-61
2021/01/14 19:08:48;;;;;;;35.03;15.58;;;;;;;-3.97;83.73;97713.40;1753483;80;21241;-61
2021/01/14 19:11:20;;;;;;;34.18;15.08;;;;;;;-3.92;83.80;97711.06;1766632;80;21118;-60
2021/01/14 19:13:48;;;;;;;34.15;15.70;;;;;;;-3.89;83.76;97706.20;1771738;79;21130;-59
2021/01/14 19:16:17;;;;;;;34.08;16.25;;;;;;;-3.86;83.68;97702.55;1780443;79;21162;-60
2021/01/14 19:18:47;;;;;;;36.45;17.70;;;;;;;-3.84;83.85;97700.98;1771469;80;21711;-59
2021/01/14 19:21:27;;;;;;;34.33;16.97;;;;;;;-3.82;83.83;97715.75;1768697;80;21252;-60
2021/01/14 19:23:55;;;;;;;39.85;19.27;;;;;;;-3.83;83.91;97709.39;1764016;79;21272;-59
2021/01/14 19:26:27;;;;;;;42.88;19.35;;;;;;;-3.79;84.09;97713.39;1769419;79;21125;-60
2021/01/14 19:28:55;;;;;;;34.63;15.95;;;;;;;-3.77;84.20;97711.78;1761246;80;21137;-59
2021/01/14 19:31:23;;;;;;;37.08;16.57;;;;;;;-3.76;83.99;97716.45;1767031;80;21334;-59
2021/01/14 19:33:51;;;;;;;32.65;16.80;;;;;;;-3.80;84.04;97716.69;1767410;80;21369;-60
2021/01/14 19:36:28;;;;;;;34.83;16.07;;;;;;;-3.84;84.18;97723.66;1768762;80;21114;-59
2021/01/14 19:38:58;;;;;;;29.37;14.75;;;;;;;-3.88;84.35;97725.55;1769431;80;21271;-59
2021/01/14 19:41:31;;;;;;;29.40;13.55;;;;;;;-3.89;83.97;97722.58;1775353;80;21556;-60
2021/01/14 19:43:59;;;;;;;24.85;13.22;;;;;;;-3.92;83.92;97723.67;1784764;79;21146;-61
2021/01/14 19:46:33;;;;;;;27.70;13.88;;;;;;;-3.95;83.76;97724.39;1774443;80;21165;-58
2021/01/14 19:49:08;;;;;;;32.28;14.28;;;;;;;-3.96;83.90;97727.71;1769718;80;21342;-60
2021/01/14 19:51:41;;;;;;;31.00;15.53;;;;;;;-4.03;83.64;97731.13;1765949;79;21627;-59
2021/01/14 19:54:10;;;;;;;32.08;15.85;;;;;;;-4.10;83.92;97735.39;1754301;80;21548;-60
2021/01/14 19:56:39;;;;;;;25.62;13.88;;;;;;;-4.11;84.32;97739.58;1754040;80;21564;-59
2021/01/14 19:59:07;;;;;;;30.10;14.90;;;;;;;-4.13;84.04;97739.03;1763729;79;21570;-61
2021/01/14 20:01:35;;;;;;;30.17;13.28;;;;;;;-4.19;84.10;97742.98;1771011;80;21133;-60
2021/01/14 20:04:03;;;;;;;25.15;12.28;;;;;;;-4.28;83.75;97736.23;1769520;80;21288;-60
2021/01/14 20:06:31;;;;;;;25.05;12.85;;;;;;;-4.32;83.72;97738.55;1770150;80;21279;-60
2021/01/14 20:08:59;;;;;;;25.25;12.18;;;;;;;-4.42;83.70;97734.30;1770231;80;21568;-61
2021/01/14 20:11:28;;;;;;;28.20;13.32;;;;;;;-4.48;83.95;97737.77;1769145;80;21295;-60
2021/01/14 20:13:57;;;;;;;23.47;12.47;;;;;;;-4.53;84.06;97739.59;1767284;80;21137;-60
2021/01/14 20:16:24;;;;;;;27.25;13.90;;;;;;;-4.55;84.19;97743.67;1769089;79;21236;-61
2021/01/14 20:18:53;;;;;;;28.85;13.40;;;;;;;-4.56;84.05;97734.41;1770473;80;21303;-60
2021/01/14 20:21:21;;;;;;;27.55;13.08;;;;;;;-4.55;84.13;97743.31;1770476;80;21198;-62
2021/01/14 20:23:49;;;;;;;26.20;13.50;;;;;;;-4.54;84.04;97747.55;1769457;80;21134;-62
2021/01/14 20:26:18;;;;;;;27.13;12.20;;;;;;;-4.55;83.92;97744.56;1767227;80;21247;-61
2021/01/14 20:28:46;;;;;;;25.55;12.60;;;;;;;-4.59;84.08;97737.23;1768966;80;21109;-60
2021/01/14 20:31:14;;;;;;;26.42;12.25;;;;;;;-4.60;84.26;97750.63;1770381;79;21350;-61
2021/01/14 20:33:42;;;;;;;28.25;14.05;;;;;;;-4.61;84.49;97751.39;1765421;80;21262;-61
2021/01/14 20:36:19;;;;;;;27.30;12.55;;;;;;;-4.63;84.74;97739.15;1758341;80;21250;-61
2021/01/14 20:38:50;;;;;;;31.40;14.00;;;;;;;-4.59;84.88;97747.30;1748258;82;21161;-60
2021/01/14 20:41:19;;;;;;;26.77;13.48;;;;;;;-4.51;84.89;97744.31;1748173;81;21302;-61
2021/01/14 20:43:47;;;;;;;30.97;14.15;;;;;;;-4.44;84.95;97741.31;1748221;82;21204;-61
2021/01/14 20:46:16;;;;;;;27.13;13.98;;;;;;;-4.44;84.50;97745.95;1748148;81;21223;-61
2021/01/14 20:48:45;;;;;;;26.55;13.15;;;;;;;-4.45;84.65;97740.45;1748123;82;21307;-59
2021/01/14 20:51:18;;;;;;;29.20;14.13;;;;;;;-4.52;84.77;97748.48;1749180;81;21155;-59
2021/01/14 20:53:48;;;;;;;29.60;14.33;;;;;;;-4.54;84.98;97750.06;1762815;80;21084;-61
2021/01/14 20:56:19;;;;;;;29.35;13.78;;;;;;;-4.52;85.24;97745.11;1762234;79;21128;-60
2021/01/14 20:58:48;;;;;;;33.92;15.10;;;;;;;-4.50;85.38;97746.03;1774386;80;21123;-60
2021/01/14 21:01:16;;;;;;;37.73;15.38;;;;;;;-4.49;85.47;97747.78;1770016;78;21296;-60
2021/01/14 21:03:44;;;;;;;29.45;13.93;;;;;;;-4.49;85.49;97751.55;1748971;81;21145;-59
2021/01/14 21:06:12;;;;;;;32.67;13.48;;;;;;;-4.51;85.42;97754.38;1749195;82;21170;-59
2021/01/14 21:08:39;;;;;;;29.05;13.55;;;;;;;-4.55;85.43;97758.41;1749218;82;21287;-59
2021/01/14 21:11:07;;;;;;;29.75;14.68;;;;;;;-4.58;85.50;97755.72;1749029;82;21205;-59
2021/01/14 21:13:35;;;;;;;27.98;13.65;;;;;;;-4.66;85.76;97761.63;1748997;82;21146;-59
2021/01/14 21:16:10;;;;;;;30.23;12.95;;;;;;;-4.70;85.86;97762.67;1717929;83;21308;-60
2021/01/14 21:18:38;;;;;;;30.40;13.38;;;;;;;-4.78;85.88;97755.99;1749060;82;21182;-60
2021/01/14 21:21:06;;;;;;;26.95;13.38;;;;;;;-4.83;86.01;97758.66;1748957;82;21308;-62
2021/01/14 21:23:36;;;;;;;23.92;10.88;;;;;;;-4.86;86.25;97759.74;1748765;82;21297;-60
2021/01/14 21:26:08;;;;;;;29.25;12.98;;;;;;;-4.90;86.10;97759.99;1747929;81;21387;-59
2021/01/14 21:28:36;;;;;;;27.27;13.32;;;;;;;-4.92;86.18;97755.27;1747640;82;21225;-61
2021/01/14 21:31:04;;;;;;;28.52;13.05;;;;;;;-4.91;86.23;97759.53;1747607;82;21398;-59
2021/01/14 21:33:33;;;;;;;34.85;14.03;;;;;;;-4.85;86.24;97761.49;1716770;83;21392;-60
2021/01/14 21:36:00;;;;;;;28.32;13.83;;;;;;;-4.76;86.33;97766.12;1751818;82;21209;-59
2021/01/14 21:38:28;;;;;;;27.42;12.98;;;;;;;-4.67;86.23;97763.68;1748153;81;21339;-59
2021/01/14 21:40:57;;;;;;;25.17;11.88;;;;;;;-4.63;85.84;97765.58;1712895;83;21242;-61
2021/01/14 21:43:25;;;;;;;30.85;13.68;;;;;;;-4.59;85.69;97757.38;1748924;82;21162;-59
2021/01/14 21:45:52;;;;;;;26.70;11.48;;;;;;;-4.60;85.74;97754.40;1749149;81;21280;-61
2021/01/14 21:48:20;;;;;;;26.75;12.80;;;;;;;-4.58;85.68;97750.68;1749117;82;21154;-60
2021/01/14 21:50:48;;;;;;;26.02;12.30;;;;;;;-4.57;85.66;97752.83;1749172;81;21243;-60
2021/01/14 21:53:16;;;;;;;30.40;13.55;;;;;;;-4.58;85.68;97759.49;1713437;83;21127;-60
2021/01/14 21:55:44;;;;;;;31.75;14.25;;;;;;;-4.57;85.73;97758.72;1786407;80;21126;-60
2021/01/14 21:58:13;;;;;;;32.38;16.32;;;;;;;-4.53;85.74;97764.77;1786516;80;21102;-60